Time,TemperatureF,DewpointF,PressureIn,WindDirection,WindDirectionDegrees,WindSpeedMPH,WindSpeedGustMPH,Humidity,HourlyPrecipIn,Conditions,Clouds,dailyrainin,SoftwareType,DateUTC
2013-07-15 07:11:00,73.0,71.0,29.93,East,88,1.0,8.0,93,0.00,,,1.45,,2013-07-15 12:11:00,
2013-07-15 07:22:00,73.0,71.0,29.93,East,90,1.0,7.0,93,0.00,,,1.08,,2013-07-15 12:22:00,
2013-07-15 07:32:00,73.0,71.0,29.93,East,90,1.0,7.0,93,0.00,,,1.08,,2013-07-15 12:32:00,
2013-07-15 07:42:00,73.0,71.0,29.93,East,90,0.0,8.0,93,0.00,,,1.08,,2013-07-15 12:42:00,
2013-07-15 07:52:00,73.0,71.0,29.93,East,90,0.0,9.0,93,0.00,,,1.08,,2013-07-15 12:52:00,
2013-07-15 08:02:00,73.0,71.0,29.93,East,90,0.0,9.0,93,0.00,,,1.08,,2013-07-15 13:02:00,
2013-07-15 09:42:00,78.0,72.0,29.95,ESE,105,4.0,12.0,82,0.00,,,0.46,,2013-07-15 14:42:00,
2013-07-15 09:57:00,78.0,72.0,29.95,ESE,105,4.0,12.0,82,0.00,,,0.46,,2013-07-15 14:57:00,
2013-07-15 10:03:00,78.0,72.0,29.95,ESE,109,5.0,13.0,82,0.00,,,0.46,,2013-07-15 15:03:00,
2013-07-15 10:23:00,79.0,72.0,29.96,ESE,102,11.0,18.0,80,0.00,,,0.25,,2013-07-15 15:23:00,
2013-07-15 10:39:00,78.0,71.0,29.96,ESE,109,9.0,18.0,80,0.00,,,0.25,,2013-07-15 15:39:00,
2013-07-15 10:46:00,79.0,72.0,29.96,ESE,102,11.0,18.0,80,0.00,,,0.25,,2013-07-15 15:46:00,
2013-07-15 10:53:00,79.0,72.0,29.96,ESE,102,11.0,18.0,80,0.00,,,0.25,,2013-07-15 15:53:00,
2013-07-15 11:08:00,79.0,72.0,29.96,ESE,102,11.0,18.0,80,0.00,,,0.25,,2013-07-15 16:08:00,
2013-07-15 11:15:00,79.0,72.0,29.96,ESE,102,11.0,18.0,80,0.00,,,0.25,,2013-07-15 16:15:00,
2013-07-15 12:36:00,71.0,67.0,29.97,East,88,0.0,0.0,87,0.20,,,0.21,,2013-07-15 17:36:00,
2013-07-15 12:49:00,72.0,69.0,29.97,East,88,0.0,0.0,91,0.27,,,0.28,,2013-07-15 17:49:00,
2013-07-15 13:06:00,74.0,72.0,29.97,East,88,0.0,0.0,93,0.30,,,0.32,,2013-07-15 18:06:00,
2013-07-15 13:17:00,75.0,73.0,29.96,East,83,0.0,0.0,93,0.19,,,0.32,,2013-07-15 18:17:00,
2013-07-15 13:38:00,75.0,73.0,29.95,East,86,0.0,0.0,93,0.11,,,0.32,,2013-07-15 18:38:00,
2013-07-15 13:45:00,76.0,74.0,29.95,East,99,0.0,0.0,93,0.04,,,0.32,,2013-07-15 18:45:00,
2013-07-15 14:05:00,76.0,73.0,29.94,East,93,0.0,0.0,91,0.00,,,0.32,,2013-07-15 19:05:00,
2013-07-15 14:24:00,76.0,73.0,29.93,East,94,0.0,0.0,91,0.00,,,0.32,,2013-07-15 19:24:00,
2013-07-15 14:36:00,76.0,73.0,29.92,East,80,0.0,0.0,91,0.00,,,0.32,,2013-07-15 19:36:00,
2013-07-15 14:47:00,77.0,74.0,29.92,ESE,102,0.0,0.0,91,0.00,,,0.32,,2013-07-15 19:47:00,
2013-07-15 14:56:00,77.0,74.0,29.92,ESE,102,0.0,0.0,91,0.00,,,0.32,,2013-07-15 19:56:00,
2013-07-15 15:07:00,77.0,74.0,29.91,East,79,3.0,10.0,91,0.00,,,0.32,,2013-07-15 20:07:00,
2013-07-15 15:17:00,77.0,74.0,29.91,ESE,123,5.0,11.0,91,0.00,,,0.32,,2013-07-15 20:17:00,
2013-07-15 15:37:00,77.0,74.0,29.91,ESE,108,7.0,13.0,90,0.00,,,0.32,,2013-07-15 20:37:00,
2013-07-15 15:43:00,77.0,74.0,29.90,East,101,7.0,12.0,89,0.00,,,0.32,,2013-07-15 20:43:00,
2013-07-15 15:54:00,77.0,74.0,29.90,East,101,7.0,12.0,89,0.00,,,0.32,,2013-07-15 20:54:00,
2013-07-15 16:03:00,77.0,74.0,29.90,ESE,119,4.0,10.0,89,0.00,,,0.32,,2013-07-15 21:03:00,
2013-07-15 16:23:00,77.0,73.0,29.91,ESE,111,1.0,10.0,88,0.00,,,0.32,,2013-07-15 21:23:00,
2013-07-15 16:38:00,77.0,72.0,29.91,East,101,4.0,11.0,86,0.00,,,0.32,,2013-07-15 21:38:00,
2013-07-15 16:48:00,77.0,72.0,29.91,ESE,105,1.0,8.0,86,0.00,,,0.32,,2013-07-15 21:48:00,
2013-07-15 16:56:00,77.0,72.0,29.91,ESE,105,1.0,8.0,86,0.00,,,0.32,,2013-07-15 21:56:00,
2013-07-15 17:03:00,77.0,72.0,29.91,East,94,0.0,12.0,86,0.00,,,0.32,,2013-07-15 22:03:00,
2013-07-15 17:22:00,78.0,73.0,29.91,East,101,2.0,11.0,86,0.00,,,0.32,,2013-07-15 22:22:00,
2013-07-15 17:34:00,78.0,73.0,29.91,East,89,0.0,9.0,85,0.00,,,0.31,,2013-07-15 22:34:00,
2013-07-15 17:43:00,79.0,74.0,29.91,East,91,3.0,8.0,84,0.00,,,0.31,,2013-07-15 22:43:00,
2013-07-15 17:54:00,79.0,73.0,29.91,East,91,6.0,12.0,83,0.00,,,0.31,,2013-07-15 22:54:00,
2013-07-15 18:06:00,79.0,73.0,29.91,East,91,6.0,12.0,83,0.00,,,0.31,,2013-07-15 23:06:00,
2013-07-15 18:13:00,79.0,73.0,29.91,East,96,3.0,11.0,83,0.00,,,0.31,,2013-07-15 23:13:00,
2013-07-15 18:28:00,79.0,73.0,29.91,ENE,78,1.0,8.0,83,0.00,,,0.31,,2013-07-15 23:28:00,
2013-07-15 18:39:00,79.0,73.0,29.91,ENE,78,1.0,8.0,83,0.00,,,0.31,,2013-07-15 23:39:00,
2013-07-15 18:53:00,79.0,73.0,29.91,East,87,0.0,9.0,83,0.01,,,0.32,,2013-07-15 23:53:00,
2013-07-15 19:03:00,79.0,73.0,29.91,East,87,0.0,9.0,83,0.01,,,0.32,,2013-07-16 00:03:00,
2013-07-15 19:16:00,79.0,74.0,29.91,East,81,0.0,7.0,84,0.01,,,0.32,,2013-07-16 00:16:00,
2013-07-15 19:26:00,78.0,73.0,29.92,ENE,68,0.0,5.0,85,0.01,,,0.32,,2013-07-16 00:26:00,
2013-07-15 19:33:00,78.0,73.0,29.92,ENE,68,0.0,5.0,85,0.01,,,0.32,,2013-07-16 00:33:00,
2013-07-15 19:47:00,78.0,73.0,29.92,ENE,69,0.0,0.0,86,0.00,,,0.32,,2013-07-16 00:47:00,
2013-07-15 19:53:00,78.0,74.0,29.92,East,100,0.0,0.0,87,0.00,,,0.32,,2013-07-16 00:53:00,
2013-07-15 20:09:00,78.0,74.0,29.92,East,100,0.0,0.0,87,0.00,,,0.32,,2013-07-16 01:09:00,
2013-07-15 20:16:00,77.0,73.0,29.93,ENE,67,0.0,2.0,87,0.00,,,0.32,,2013-07-16 01:16:00,
2013-07-15 20:27:00,77.0,73.0,29.93,ENE,67,0.0,2.0,87,0.00,,,0.32,,2013-07-16 01:27:00,
2013-07-15 20:37:00,77.0,73.0,29.93,ENE,69,0.0,6.0,88,0.00,,,0.32,,2013-07-16 01:37:00,
2013-07-15 20:49:00,76.0,73.0,29.94,East,94,0.0,11.0,89,0.02,,,0.34,,2013-07-16 01:49:00,
2013-07-15 21:11:00,75.0,73.0,29.94,ESE,109,0.0,1.0,92,0.07,,,0.39,,2013-07-16 02:11:00,
2013-07-15 21:35:00,75.0,73.0,29.95,East,91,0.0,5.0,93,0.07,,,0.39,,2013-07-16 02:35:00,
2013-07-15 21:38:00,75.0,73.0,29.96,East,88,0.0,0.0,93,0.01,,,0.39,,2013-07-16 02:38:00,